Terminal Aerodrome Forecast
Issued by NWS

Home | Current Version | Previous Version | Text Only | Print | Product List | Glossary On
Versions: 1 2 3 4 5 6 7 8 9 10 11 12 13 14 15 16 17 18 19 20 21 22 23 24
000
FTUS43 KDLH 231700
TAFBRD
TAF
KBRD 231728Z 2318/2418 18014G20KT P6SM SCT200
     FM232300 17010KT P6SM SCT100 BKN200
     FM240700 16008KT P6SM VCSH OVC050
     FM241200 16009KT 5SM -RA BR SCT010 OVC025
     FM241500 18007KT 4SM -RA BR BKN009 OVC015=

USA.gov is the U.S. government's official web portal to all federal, state and local government web resources and services.